Hollis, New Hampshire
Current Conditions -  °F | °C
As of 3:51 PM on Thursday 23 Oct 2014 (Local Time) from KASH Reporting Station
Overcast Overcast  
Wind Chill: 12°   Ceiling: 1600
Heat Index: 12°   Visibility: 10mi
Dew Point:   Wind: 10mph
Humidity: 86%   Direction: 20°NNE
Pressure: 29.68"   Gusts: 23mph
Location:  42.74°N, 71.59°W
Report Text: KASH 231951Z 02009G20KT 340V040 10SM OVC016 12/09 A2968 RMK AO2 T01160094 RAE00B22E47 P0000 SLP299 $
Loading
Personal Weather Stations






























Interactive Weather Map
Tropical Storm Tracking
New forecast layout! Learn more

10-Day Weather Forecast

Advertisements
Track Severe Weather on mobile